CheckWX is a tool to help pilots better visualize weather data.  It is not intended as a substitute for an official pre-flight weather briefing.

12:29:21 UTC

ESKN METAR
Stockholm Skavsta Airport
Stockholm / Nyköping, Sweden
Current

39 mins ago

ESKN 181150Z 20010KT 9000 BKN007 05/05 Q1013 R26/19//95
Observed
Feb-18 @ 11:50 UTC
Wind
  • 200° at 10 KTS
Visibility
8,996 meters
Flight Rules
IFR
Cloud Levels
  • Broken at 700' AGL
Temperature
C / 41°F
Dewpoint
C / 41°F
Humidity
100%
Altimeter
29.91" Hg
Pressure
1012.92 hPa
Previous

1 hour ago

ESKN 181120Z 20008KT 8000 OVC005 05/04 Q1013 R26/19//95
Observed
Feb-18 @ 11:20 UTC
Wind
  • 200° at 8 KTS
Visibility
7,998 meters
Flight Rules
IFR
Cloud Levels
  • Overcast at 500' AGL
Temperature
C / 41°F
Dewpoint
C / 39°F
Humidity
93%
Altimeter
29.91" Hg
Pressure
1012.92 hPa
Previous

2 hours ago

ESKN 181050Z 20009KT 160V230 7000 OVC003 04/04 Q1014 R26/19//95
Observed
Feb-18 @ 10:50 UTC
Wind
  • 200° at 9 KTS
Visibility
7,001 meters
Flight Rules
LIFR
Cloud Levels
  • Overcast at 300' AGL
Temperature
C / 39°F
Dewpoint
C / 39°F
Humidity
100%
Altimeter
29.94" Hg
Pressure
1013.92 hPa